Time;durP1;ratioP1;P1;durP2;ratioP2;P2;SDS_P1;SDS_P2;PMS_P1;PMS_P2;Temp;Humidity;BMP_temperature;BMP_pressure;BME280_temperature;BME280_humidity;BME280_pressure;Samples;Min_cycle;Max_cycle;Signal;HPM_P1;HPM_P2
2022/02/10 00:05:37;;;;;;;40.63;25.57;;;;;;;-0.20;85.42;96610.27;1697828;84;21071;-74
2022/02/10 00:18:34;;;;;;;37.43;21.50;;;;;;;-0.17;84.38;96614.28;1698232;84;21036;-75
2022/02/10 00:21:08;;;;;;;38.33;23.97;;;;;;;-0.46;84.23;96618.30;1696182;84;21044;-75
2022/02/10 00:34:11;;;;;;;43.87;25.63;;;;;;;-0.61;84.62;96625.45;1697590;84;21366;-74
2022/02/10 00:36:40;;;;;;;8.10;5.23;;;;;;;-0.62;85.05;96610.32;1697932;84;21558;-75
2022/02/10 00:41:51;;;;;;;9.90;7.43;;;;;;;-0.54;85.57;96609.33;1697485;84;21026;-75
2022/02/10 00:44:18;;;;;;;7.30;5.23;;;;;;;-0.62;84.93;96617.22;1697721;84;21051;-75
2022/02/10 00:46:44;;;;;;;7.70;5.30;;;;;;;-0.67;85.32;96616.61;1698049;84;21028;-76
2022/02/10 00:49:11;;;;;;;22.13;14.07;;;;;;;-0.76;85.43;96614.05;1698137;84;20985;-75
2022/02/10 00:51:38;;;;;;;5.60;3.57;;;;;;;-0.83;85.05;96610.72;1697977;83;21526;-75
2022/02/10 00:54:05;;;;;;;5.10;3.40;;;;;;;-0.80;85.56;96621.23;1699867;84;21032;-75
2022/02/10 00:56:31;;;;;;;6.80;4.20;;;;;;;-0.77;85.39;96625.24;1699966;84;21510;-75
2022/02/10 00:59:10;;;;;;;8.60;4.77;;;;;;;-0.82;85.67;96617.27;1699895;84;20996;-75
2022/02/10 01:07:13;;;;;;;7.70;5.00;;;;;;;-0.76;85.20;96617.93;1700032;84;21028;-75
2022/02/10 01:12:31;;;;;;;8.63;5.97;;;;;;;-0.76;85.54;96620.52;1699724;84;21589;-75
2022/02/10 01:31:21;;;;;;;6.17;3.87;;;;;;;-0.98;85.24;96598.92;1700028;84;21044;-74
2022/02/10 01:33:48;;;;;;;7.57;3.63;;;;;;;-0.99;85.42;96595.84;1699663;84;21076;-74
2022/02/10 01:36:15;;;;;;;8.37;5.27;;;;;;;-0.94;85.87;96596.91;1699654;84;21118;-74
2022/02/10 01:38:42;;;;;;;8.70;5.30;;;;;;;-1.04;85.45;96600.36;1699631;84;21056;-74
2022/02/10 01:57:51;;;;;;;6.20;4.00;;;;;;;-1.43;86.01;96606.91;1699825;84;21020;-77
2022/02/10 02:05:47;;;;;;;6.60;4.53;;;;;;;-1.39;85.68;96595.42;1699807;84;21498;-77
2022/02/10 02:08:12;;;;;;;8.97;5.10;;;;;;;-1.46;85.63;96606.36;1699542;84;21132;-77
2022/02/10 02:10:38;;;;;;;8.03;4.27;;;;;;;-1.39;86.12;96597.14;1699936;84;21028;-78
2022/02/10 02:13:05;;;;;;;7.67;4.80;;;;;;;-1.41;86.15;96607.83;1699880;84;21542;-76
2022/02/10 02:15:32;;;;;;;5.60;4.23;;;;;;;-1.39;85.95;96606.20;1700012;84;21041;-75
2022/02/10 02:17:58;;;;;;;6.80;4.73;;;;;;;-1.39;85.99;96609.66;1700059;84;21025;-75
2022/02/10 02:20:25;;;;;;;8.17;4.90;;;;;;;-1.40;85.75;96601.44;1700020;84;21545;-75
2022/02/10 02:22:52;;;;;;;5.20;3.73;;;;;;;-1.47;85.54;96609.75;1699835;84;21164;-76
2022/02/10 02:25:18;;;;;;;6.17;3.93;;;;;;;-1.51;85.46;96610.45;1700008;84;21044;-76
2022/02/10 02:27:51;;;;;;;10.17;4.43;;;;;;;-1.46;85.88;96608.95;1700003;84;21028;-76
2022/02/10 02:30:39;;;;;;;6.10;3.92;;;;;;;-1.53;85.91;96612.08;1699993;84;21071;-76
2022/02/10 02:33:30;;;;;;;7.93;4.67;;;;;;;-1.53;85.63;96608.20;1698061;84;21539;-76
2022/02/10 02:35:46;;;;;;;6.90;4.33;;;;;;;-1.50;86.01;96608.33;1695439;84;21097;-76
2022/02/10 02:38:38;;;;;;;7.27;4.47;;;;;;;-1.54;85.55;96610.30;1696497;84;21012;-76
2022/02/10 03:05:39;;;;;;;6.83;4.50;;;;;;;-1.49;85.71;96598.85;1698214;84;21076;-76
2022/02/10 03:08:11;;;;;;;7.80;4.40;;;;;;;-1.57;85.39;96598.52;1672024;84;21009;-76
2022/02/10 03:12:57;;;;;;;6.37;3.83;;;;;;;-1.58;85.91;96596.34;1697737;84;21031;-77
2022/02/10 03:15:34;;;;;;;6.77;4.57;;;;;;;-1.52;86.03;96596.60;1697593;84;21077;-77
2022/02/10 04:04:43;;;;;;;6.03;4.37;;;;;;;-1.61;85.83;96592.34;1697872;84;21056;-78
2022/02/10 04:10:04;;;;;;;6.90;3.93;;;;;;;-1.65;85.72;96588.25;1698098;84;21008;-78
2022/02/10 04:12:47;;;;;;;6.13;3.53;;;;;;;-1.71;85.51;96587.58;1694314;84;21073;-78
2022/02/10 04:15:05;;;;;;;10.33;6.47;;;;;;;-1.75;85.24;96581.36;1694264;84;21055;-75
2022/02/10 04:26:09;;;;;;;7.97;4.60;;;;;;;-1.87;85.47;96583.39;1697883;84;21036;-77
2022/02/10 04:55:07;;;;;;;67.00;34.10;;;;;;;-2.26;85.99;96593.70;1698737;84;21068;-77
2022/02/10 05:18:58;;;;;;;61.10;31.67;;;;;;;-2.05;85.68;96583.45;1700206;84;21064;-77
2022/02/10 05:32:12;;;;;;;18.27;9.33;;;;;;;-2.01;85.96;96566.39;1670740;86;20994;-77
2022/02/10 05:34:20;;;;;;;117.60;53.73;;;;;;;-2.04;85.53;96565.84;1666441;86;21008;-75
2022/02/10 05:36:48;;;;;;;55.70;26.10;;;;;;;-2.10;84.27;96581.48;1699394;84;21009;-77
2022/02/10 05:39:22;;;;;;;14.47;8.03;;;;;;;-2.23;84.45;96575.73;1699866;84;21055;-77
2022/02/10 05:44:48;;;;;;;7.83;5.47;;;;;;;-2.12;85.36;96570.17;1699878;84;21051;-77
2022/02/10 05:55:29;;;;;;;11.40;6.57;;;;;;;-2.16;85.23;96569.58;1700063;83;21009;-77
2022/02/10 05:57:58;;;;;;;6.40;4.20;;;;;;;-2.15;85.18;96569.63;1695951;84;21048;-76
2022/02/10 06:54:48;;;;;;;87.17;46.57;;;;;;;-0.89;84.46;96556.53;1687262;85;21097;-84
2022/02/10 06:57:25;;;;;;;73.23;37.43;;;;;;;-0.79;84.40;96554.33;1698002;84;21090;-82
2022/02/10 07:07:52;;;;;;;142.73;78.00;;;;;;;-0.48;84.73;96565.11;1722716;83;21109;-76
2022/02/10 07:15:41;;;;;;;52.67;33.10;;;;;;;-0.35;84.12;96572.04;1700508;84;21042;-73
2022/02/10 07:48:38;;;;;;;43.23;23.43;;;;;;;1.04;84.17;96545.95;1705821;84;21047;-73
2022/02/10 07:53:57;;;;;;;34.77;19.50;;;;;;;1.17;84.04;96543.34;1707116;84;21114;-75
2022/02/10 08:56:06;;;;;;;25.92;18.23;;;;;;;4.53;79.79;96475.11;1704692;83;21085;-74
2022/02/10 09:14:48;;;;;;;22.53;15.27;;;;;;;5.76;75.21;96460.56;1704950;84;21051;-75
2022/02/10 09:20:06;;;;;;;23.67;17.03;;;;;;;6.22;76.52;96457.26;1703754;83;22382;-69
2022/02/10 10:00:01;;;;;;;10.30;4.40;;;;;;;8.11;70.98;96433.45;1714777;84;21036;-82
2022/02/10 10:02:26;;;;;;;7.07;3.77;;;;;;;8.35;68.02;96434.44;1709824;84;21059;-75
2022/02/10 10:05:13;;;;;;;8.30;2.87;;;;;;;8.47;68.65;96433.20;1705490;84;21042;-74
2022/02/10 10:07:35;;;;;;;8.07;3.33;;;;;;;8.60;69.15;96419.20;1704986;84;21019;-73
2022/02/10 10:15:48;;;;;;;5.90;4.07;;;;;;;9.07;65.88;96410.92;1708800;84;21027;-74
2022/02/10 10:21:27;;;;;;;;;;;;;;;9.16;65.77;96390.31;1689158;85;21065;-73
2022/02/10 10:26:46;;;;;;;3.60;3.13;;;;;;;9.42;62.40;96386.33;1687666;84;21063;-72
2022/02/10 10:57:17;;;;;;;4.42;2.95;;;;;;;14.27;48.03;96334.25;1687138;84;21027;-79
2022/02/10 11:36:28;;;;;;;6.28;4.70;;;;;;;17.82;37.92;96309.67;1688028;85;21464;-75
2022/02/10 11:39:23;;;;;;;4.60;3.67;;;;;;;18.08;36.87;96311.39;1687097;85;20991;-78
2022/02/10 11:42:19;;;;;;;14.30;9.30;;;;;;;18.03;36.06;96304.48;1687021;85;21028;-77
2022/02/10 13:03:24;;;;;;;3.20;2.83;;;;;;;20.35;29.46;96236.02;1678557;85;21021;-75
2022/02/10 13:31:56;;;;;;;2.47;1.60;;;;;;;21.63;28.46;96205.13;1678339;85;21093;-77
2022/02/10 14:13:36;;;;;;;3.30;2.55;;;;;;;16.85;34.67;96180.95;1708484;84;21523;-74
2022/02/10 14:18:39;;;;;;;3.17;1.60;;;;;;;15.36;36.80;96185.48;1678588;85;21006;-73
2022/02/10 14:21:15;;;;;;;2.27;1.55;;;;;;;14.29;38.37;96194.41;1708397;84;21022;-73
2022/02/10 14:26:49;;;;;;;2.40;0.93;;;;;;;12.65;40.71;96192.84;1678563;85;21031;-73
2022/02/10 14:28:37;;;;;;;0.72;0.70;;;;;;;11.88;42.27;96194.05;1700205;84;21081;-75
2022/02/10 14:31:04;;;;;;;1.12;1.00;;;;;;;10.97;44.86;96210.97;1678489;85;21038;-74
2022/02/10 14:33:35;;;;;;;1.02;0.80;;;;;;;10.40;44.72;96216.75;1678508;85;21035;-74
2022/02/10 14:36:19;;;;;;;1.42;0.98;;;;;;;9.51;49.44;96218.59;1708149;84;21025;-74
2022/02/10 14:38:43;;;;;;;3.10;0.90;;;;;;;9.00;48.96;96223.17;1675752;85;21082;-74
2022/02/10 16:17:45;;;;;;;2.47;1.70;;;;;;;2.90;72.80;96240.41;1708306;84;21046;-75
2022/02/10 16:20:18;;;;;;;3.60;1.33;;;;;;;2.96;72.94;96237.95;1678373;85;21077;-76
2022/02/10 16:22:57;;;;;;;2.60;1.70;;;;;;;2.94;72.93;96238.33;1677919;85;21094;-76
2022/02/10 16:25:10;;;;;;;3.50;1.93;;;;;;;2.94;73.19;96240.51;1705013;84;21046;-76
2022/02/10 16:27:39;;;;;;;4.43;1.50;;;;;;;2.93;73.00;96236.16;1678538;85;21476;-76
2022/02/10 16:30:13;;;;;;;2.00;1.47;;;;;;;2.93;71.93;96232.25;1708445;84;21488;-76
2022/02/10 16:32:36;;;;;;;3.73;3.20;;;;;;;2.80;73.05;96236.32;1678145;85;20995;-76
2022/02/10 16:35:03;;;;;;;2.50;1.43;;;;;;;2.65;73.57;96231.20;1678051;85;21078;-76
2022/02/10 16:37:30;;;;;;;4.13;1.90;;;;;;;2.57;74.48;96235.81;1708236;84;21030;-77
2022/02/10 16:39:57;;;;;;;4.40;1.90;;;;;;;2.42;75.01;96228.95;1678415;85;20983;-77
2022/02/10 16:42:23;;;;;;;3.13;2.30;;;;;;;2.36;73.65;96223.59;1678484;85;20998;-77
2022/02/10 16:44:51;;;;;;;2.50;1.60;;;;;;;2.40;74.36;96219.35;1678246;85;21138;-76
2022/02/10 16:47:19;;;;;;;3.20;1.40;;;;;;;2.37;74.65;96225.37;1678427;85;21034;-76
2022/02/10 16:49:50;;;;;;;3.07;1.87;;;;;;;2.38;74.33;96216.27;1707869;84;21077;-77
2022/02/10 16:52:21;;;;;;;1.77;1.23;;;;;;;2.45;73.13;96223.81;1678402;85;21504;-77
2022/02/10 16:54:46;;;;;;;2.90;1.77;;;;;;;2.33;74.21;96220.50;1678238;85;21465;-77
2022/02/10 16:57:37;;;;;;;2.73;1.63;;;;;;;2.29;73.72;96219.98;1708241;84;21097;-77
2022/02/10 17:00:46;;;;;;;2.33;1.30;;;;;;;2.26;73.92;96234.20;1676949;85;21070;-76
2022/02/10 17:05:35;;;;;;;3.20;1.60;;;;;;;2.15;74.96;96226.58;1708139;84;21524;-76
2022/02/10 17:18:49;;;;;;;2.10;1.60;;;;;;;1.89;75.23;96222.92;1678294;85;21006;-77
2022/02/10 17:21:25;;;;;;;5.60;2.13;;;;;;;1.96;75.00;96230.44;1704390;84;21511;-77
2022/02/10 17:26:37;;;;;;;5.73;2.83;;;;;;;2.06;75.17;96228.52;1678153;85;21045;-78
2022/02/10 17:28:54;;;;;;;4.27;1.70;;;;;;;1.91;76.37;96229.45;1706109;84;21017;-78
2022/02/10 17:31:37;;;;;;;3.53;1.90;;;;;;;1.88;75.23;96230.68;1678395;85;21067;-77
2022/02/10 17:34:12;;;;;;;4.10;1.90;;;;;;;1.94;75.82;96225.22;1676629;85;21066;-78
2022/02/10 17:36:34;;;;;;;2.57;1.70;;;;;;;1.87;75.25;96226.33;1703922;84;21062;-78
2022/02/10 17:42:13;;;;;;;3.17;2.30;;;;;;;1.67;75.86;96227.13;1678487;85;21026;-78
2022/02/10 17:44:54;;;;;;;4.27;2.77;;;;;;;1.73;75.55;96235.95;1704081;84;21002;-78
2022/02/10 17:52:10;;;;;;;4.47;2.50;;;;;;;1.63;77.42;96233.95;1698255;84;21504;-77
2022/02/10 17:54:28;;;;;;;3.20;2.10;;;;;;;1.51;76.53;96237.52;1698039;84;21491;-78
2022/02/10 17:56:55;;;;;;;4.17;2.63;;;;;;;1.44;76.99;96231.72;1697941;84;20998;-78
2022/02/10 17:59:23;;;;;;;5.50;3.03;;;;;;;1.36;76.52;96229.31;1690102;85;21039;-78
2022/02/10 18:01:52;;;;;;;5.50;3.23;;;;;;;1.28;76.26;96228.68;1690175;85;21070;-78
2022/02/10 18:04:20;;;;;;;4.43;3.10;;;;;;;1.23;77.25;96231.58;1689632;85;21126;-78
2022/02/10 18:06:52;;;;;;;5.73;3.40;;;;;;;1.10;77.48;96228.19;1690038;85;21018;-79
2022/02/10 18:14:53;;;;;;;7.40;3.70;;;;;;;1.23;76.80;96232.00;1690286;85;21015;-78
2022/02/10 18:17:31;;;;;;;5.23;3.07;;;;;;;1.21;76.59;96220.28;1689737;85;21492;-78
2022/02/10 18:20:03;;;;;;;7.23;4.13;;;;;;;1.16;76.23;96221.88;1689556;85;21146;-78
2022/02/10 18:22:38;;;;;;;7.70;3.90;;;;;;;1.01;77.42;96223.62;1689423;85;21078;-78
2022/02/10 18:25:16;;;;;;;7.93;3.60;;;;;;;1.05;77.41;96228.47;1687548;85;21134;-79
2022/02/10 18:27:41;;;;;;;7.50;3.87;;;;;;;1.12;77.13;96227.81;1687652;85;21011;-78
2022/02/10 19:10:20;;;;;;;5.70;3.00;;;;;;;0.59;78.88;96207.67;1690165;85;21480;-81
2022/02/10 19:12:52;;;;;;;5.30;3.47;;;;;;;0.58;79.04;96203.30;1690092;85;21038;-79
2022/02/10 19:15:21;;;;;;;23.63;12.70;;;;;;;0.57;78.72;96205.44;1690051;85;21026;-79
2022/02/10 19:17:47;;;;;;;21.60;11.30;;;;;;;0.39;79.16;96200.58;1690064;85;21078;-82
2022/02/10 19:20:16;;;;;;;9.57;6.10;;;;;;;0.34;79.69;96204.33;1690781;85;21052;-81
2022/02/10 19:22:43;;;;;;;7.03;4.03;;;;;;;0.32;79.91;96202.09;1690256;85;21042;-83
2022/02/10 19:25:12;;;;;;;5.00;3.00;;;;;;;0.30;79.80;96191.20;1690381;85;21007;-82
2022/02/10 19:27:41;;;;;;;7.10;4.33;;;;;;;0.29;79.44;96192.05;1690559;85;21018;-84
2022/02/10 19:30:11;;;;;;;8.47;3.23;;;;;;;0.32;80.46;96184.36;1690200;85;21059;-84
2022/02/10 19:32:42;;;;;;;5.53;3.43;;;;;;;0.35;79.86;96189.63;1689983;85;21083;-85
2022/02/10 19:35:09;;;;;;;8.73;5.43;;;;;;;0.33;79.69;96190.91;1690264;85;21048;-83
2022/02/10 19:37:36;;;;;;;10.60;6.83;;;;;;;0.37;79.41;96179.76;1690070;85;21011;-83
2022/02/10 19:40:04;;;;;;;16.97;6.73;;;;;;;0.46;79.52;96179.59;1690252;85;21290;-83
2022/02/10 19:42:35;;;;;;;52.37;24.53;;;;;;;0.38;80.21;96176.77;1690297;85;21493;-82
2022/02/10 19:45:05;;;;;;;88.13;44.13;;;;;;;0.16;80.31;96181.72;1690165;85;21023;-83
2022/02/10 19:47:35;;;;;;;79.53;32.67;;;;;;;0.13;80.24;96177.31;1690382;85;21102;-84
2022/02/10 19:50:10;;;;;;;5.17;2.17;;;;;;;0.08;79.45;96171.11;1690281;84;21078;-84
2022/02/10 19:52:37;;;;;;;5.00;2.70;;;;;;;0.17;79.82;96164.00;1689735;85;21035;-84
2022/02/10 19:55:03;;;;;;;5.53;2.73;;;;;;;0.15;79.49;96166.57;1689952;85;21118;-84
2022/02/10 19:57:33;;;;;;;4.80;3.10;;;;;;;0.23;80.28;96156.81;1688996;85;21014;-82
2022/02/10 19:59:59;;;;;;;2.50;1.90;;;;;;;0.17;80.35;96161.41;1669746;85;21049;-83
2022/02/10 20:02:26;;;;;;;3.97;2.90;;;;;;;0.14;80.24;96156.13;1670181;86;21025;-83
2022/02/10 20:04:55;;;;;;;13.23;7.93;;;;;;;0.03;80.73;96154.52;1669784;85;21098;-81
2022/02/10 20:07:21;;;;;;;6.43;3.73;;;;;;;-0.01;79.96;96156.54;1670043;86;21061;-82
2022/02/10 20:09:47;;;;;;;10.97;6.33;;;;;;;0.01;80.81;96144.92;1669945;85;21057;-82
2022/02/10 20:12:14;;;;;;;14.00;5.90;;;;;;;-0.02;80.36;96158.27;1669639;86;21093;-81
2022/02/10 20:14:40;;;;;;;12.57;7.23;;;;;;;-0.09;81.34;96151.53;1670022;86;20962;-81
2022/02/10 20:17:07;;;;;;;11.40;6.37;;;;;;;-0.13;81.47;96163.94;1670012;85;21545;-83
2022/02/10 20:19:33;;;;;;;11.57;7.23;;;;;;;-0.05;81.49;96154.67;1669615;86;21002;-84
2022/02/10 20:22:00;;;;;;;9.93;5.50;;;;;;;-0.05;82.01;96147.80;1670234;86;20962;-83
2022/02/10 20:24:26;;;;;;;13.50;6.60;;;;;;;-0.07;81.50;96157.23;1669880;86;21049;-82
2022/02/10 20:26:53;;;;;;;9.20;5.50;;;;;;;-0.11;81.27;96152.77;1669808;86;21041;-82
2022/02/10 20:29:19;;;;;;;6.53;3.77;;;;;;;-0.08;81.40;96152.86;1670000;85;21047;-84
2022/02/10 20:31:46;;;;;;;10.67;5.93;;;;;;;-0.03;81.06;96157.77;1669944;86;21527;-84
2022/02/10 20:34:15;;;;;;;83.40;34.13;;;;;;;-0.08;81.17;96158.05;1669915;86;20994;-84
2022/02/10 20:36:41;;;;;;;56.10;25.93;;;;;;;-0.10;81.27;96145.48;1669986;86;21033;-84
2022/02/10 20:39:09;;;;;;;4.37;2.40;;;;;;;-0.15;81.52;96148.73;1669712;86;20998;-85
2022/02/10 20:41:36;;;;;;;4.97;2.77;;;;;;;-0.18;81.14;96146.92;1669868;86;20998;-85
2022/02/10 20:44:05;;;;;;;5.73;3.97;;;;;;;-0.15;80.94;96146.14;1669930;86;21558;-85
2022/02/10 20:46:39;;;;;;;3.70;2.10;;;;;;;-0.16;81.39;96142.67;1669953;85;20986;-84
2022/02/10 20:49:02;;;;;;;3.37;2.40;;;;;;;-0.12;81.28;96145.84;1668977;86;21078;-84
2022/02/10 20:51:29;;;;;;;5.97;2.60;;;;;;;-0.08;80.91;96141.61;1670026;85;21484;-85
2022/02/10 20:53:55;;;;;;;3.33;2.37;;;;;;;-0.06;81.14;96138.23;1669882;86;20986;-85
2022/02/10 20:56:22;;;;;;;29.53;17.27;;;;;;;0.02;81.30;96131.98;1670188;86;21002;-84
2022/02/10 20:59:06;;;;;;;36.30;20.87;;;;;;;0.04;81.13;96130.74;1680531;85;21034;-83
2022/02/10 21:01:26;;;;;;;23.47;14.67;;;;;;;-0.01;80.35;96134.48;1691849;85;21501;-84
2022/02/10 21:03:53;;;;;;;3.67;2.40;;;;;;;-0.12;80.35;96129.41;1692795;85;21098;-84
2022/02/10 21:07:11;;;;;;;4.73;2.50;;;;;;;-0.17;80.17;96128.37;1667361;85;21098;-84
2022/02/10 21:11:16;;;;;;;7.23;3.13;;;;;;;-0.20;80.67;96126.96;1692950;85;21107;-85
2022/02/10 21:13:43;;;;;;;2.57;1.90;;;;;;;-0.27;80.43;96124.19;1693176;85;21090;-84
2022/02/10 21:16:10;;;;;;;13.43;6.57;;;;;;;-0.27;80.30;96126.78;1693162;85;21027;-81
2022/02/10 21:18:38;;;;;;;39.60;18.00;;;;;;;-0.33;80.43;96127.91;1693025;84;21030;-82
2022/02/10 21:21:10;;;;;;;4.53;2.90;;;;;;;-0.42;80.54;96129.31;1693232;85;21027;-83
2022/02/10 21:26:01;;;;;;;4.87;2.27;;;;;;;-0.45;80.88;96128.37;1692946;85;21106;-82
2022/02/10 21:28:35;;;;;;;15.60;6.93;;;;;;;-0.46;80.61;96117.95;1693290;85;21031;-82
2022/02/10 21:31:00;;;;;;;8.43;3.60;;;;;;;-0.45;80.41;96115.84;1692077;85;21051;-83
2022/02/10 21:57:36;;;;;;;3.30;2.03;;;;;;;-0.57;80.81;96111.13;1693256;84;20975;-82
2022/02/10 22:00:24;;;;;;;38.93;20.80;;;;;;;-0.54;80.84;96112.94;1693377;84;21126;-82
2022/02/10 22:06:08;;;;;;;71.30;34.93;;;;;;;-0.74;80.67;96107.11;1698235;84;21037;-82
2022/02/10 22:18:49;;;;;;;4.73;2.97;;;;;;;-0.87;82.09;96101.94;1698219;84;21102;-81
2022/02/10 22:21:24;;;;;;;4.40;2.43;;;;;;;-0.80;81.86;96096.13;1697866;84;21113;-81
2022/02/10 22:23:48;;;;;;;31.37;18.53;;;;;;;-0.75;81.88;96104.06;1698035;84;21516;-81
2022/02/10 22:26:22;;;;;;;56.10;30.20;;;;;;;-0.88;81.53;96103.65;1698554;84;21043;-82
2022/02/10 22:29:04;;;;;;;19.00;9.23;;;;;;;-0.97;82.19;96110.23;1698231;84;21019;-82
2022/02/10 22:36:40;;;;;;;49.50;26.63;;;;;;;-1.00;82.59;96111.42;1698582;84;21038;-83
2022/02/10 22:39:06;;;;;;;13.83;8.50;;;;;;;-1.01;82.03;96113.11;1698455;84;21116;-82
2022/02/10 22:41:34;;;;;;;3.97;2.00;;;;;;;-1.05;81.96;96116.44;1698299;84;21089;-83
2022/02/10 22:44:04;;;;;;;6.97;4.60;;;;;;;-1.04;82.14;96113.02;1698617;84;21018;-83
2022/02/10 22:46:32;;;;;;;6.33;4.33;;;;;;;-1.03;82.46;96118.67;1698597;84;21019;-83
2022/02/10 22:49:00;;;;;;;3.30;1.90;;;;;;;-1.04;82.35;96118.19;1698346;84;21061;-83
2022/02/10 22:51:30;;;;;;;3.30;2.27;;;;;;;-1.03;82.26;96114.80;1698471;84;21002;-82
2022/02/10 22:53:57;;;;;;;27.83;17.10;;;;;;;-1.02;82.34;96111.78;1698626;84;20995;-81
2022/02/10 22:56:28;;;;;;;28.87;16.33;;;;;;;-1.17;81.77;96115.59;1698274;84;21050;-82
2022/02/10 22:58:56;;;;;;;24.80;16.50;;;;;;;-1.32;82.11;96115.06;1696671;84;21075;-81
2022/02/10 23:01:23;;;;;;;12.90;8.23;;;;;;;-1.31;82.07;96118.14;1690216;85;21078;-80
2022/02/10 23:03:49;;;;;;;9.00;5.70;;;;;;;-1.33;82.43;96123.67;1690376;85;21488;-80
2022/02/10 23:06:16;;;;;;;6.03;3.37;;;;;;;-1.29;82.63;96116.88;1690015;85;21027;-80
2022/02/10 23:08:43;;;;;;;2.53;1.83;;;;;;;-1.24;82.59;96111.03;1690197;85;21445;-80
2022/02/10 23:11:13;;;;;;;6.03;3.57;;;;;;;-1.18;82.18;96115.14;1690557;85;20999;-80
2022/02/10 23:13:45;;;;;;;3.13;2.13;;;;;;;-1.27;82.67;96109.63;1690405;85;21051;-81
2022/02/10 23:16:09;;;;;;;5.30;3.10;;;;;;;-1.33;82.27;96103.84;1690263;85;21046;-81
2022/02/10 23:18:37;;;;;;;21.90;12.13;;;;;;;-1.27;82.48;96105.75;1690144;85;21130;-81
2022/02/10 23:21:10;;;;;;;17.73;9.30;;;;;;;-1.25;82.66;96104.52;1690225;85;21046;-81
2022/02/10 23:23:38;;;;;;;10.55;6.40;;;;;;;-1.29;82.26;96102.22;1690393;85;21039;-82
2022/02/10 23:26:08;;;;;;;25.67;14.93;;;;;;;-1.33;81.93;96097.78;1690275;85;21034;-82
2022/02/10 23:28:40;;;;;;;22.40;11.43;;;;;;;-1.42;82.39;96089.27;1690304;84;20999;-82
2022/02/10 23:31:12;;;;;;;4.80;2.90;;;;;;;-1.46;82.35;96081.33;1690390;85;21039;-82
2022/02/10 23:33:42;;;;;;;7.80;3.95;;;;;;;-1.46;82.22;96073.17;1690599;85;21023;-82
2022/02/10 23:39:07;;;;;;;7.57;4.53;;;;;;;-1.33;83.01;96081.83;1690368;85;21042;-83
2022/02/10 23:44:17;;;;;;;15.33;8.93;;;;;;;-1.46;83.27;96090.00;1690099;85;21050;-84
2022/02/10 23:46:42;;;;;;;55.13;31.10;;;;;;;-1.52;82.81;96085.88;1689666;85;21043;-82
2022/02/10 23:49:10;;;;;;;58.60;30.70;;;;;;;-1.68;82.98;96091.35;1690199;85;21031;-82
2022/02/10 23:51:46;;;;;;;7.00;4.00;;;;;;;-1.69;83.60;96096.03;1690737;85;20987;-82
2022/02/10 23:54:05;;;;;;;2.70;2.10;;;;;;;-1.62;83.21;96097.61;1688384;85;21078;-82
2022/02/10 23:56:38;;;;;;;4.30;2.73;;;;;;;-1.53;83.06;96095.36;1690150;85;21011;-84
2022/02/10 23:59:12;;;;;;;7.23;3.73;;;;;;;-1.46;83.03;96096.86;1690656;84;21026;-84
